Time;durP1;ratioP1;P1;durP2;ratioP2;P2;SDS_P1;SDS_P2;PMS_P1;PMS_P2;Temp;Humidity;BMP_temperature;BMP_pressure;BME280_temperature;BME280_humidity;BME280_pressure;Samples;Min_cycle;Max_cycle;Signal;HPM_P1;HPM_P2
2021/07/26 00:01:01;;;;;;;4.50;4.03;;;19.70;84.00;;;;;;4924028;29;20553;-42
2021/07/26 00:03:28;;;;;;;4.83;3.50;;;19.70;84.00;;;;;;4924461;29;20506;-42
2021/07/26 00:05:59;;;;;;;7.20;4.33;;;19.60;84.00;;;;;;4922831;29;20945;-42
2021/07/26 00:08:35;;;;;;;5.67;3.93;;;19.60;84.00;;;;;;4924024;29;20496;-42
2021/07/26 00:11:04;;;;;;;4.10;3.70;;;19.60;84.00;;;;;;4927553;29;20464;-42
2021/07/26 00:13:31;;;;;;;4.30;3.73;;;19.60;84.00;;;;;;4928384;29;20492;-41
2021/07/26 00:15:58;;;;;;;4.10;3.30;;;19.60;84.10;;;;;;4926547;29;20535;-41
2021/07/26 00:18:27;;;;;;;3.47;3.10;;;19.60;84.20;;;;;;4924045;29;20524;-42
2021/07/26 00:20:55;;;;;;;6.80;3.77;;;19.60;84.30;;;;;;4924043;29;20544;-42
2021/07/26 00:23:22;;;;;;;7.07;3.50;;;19.60;84.30;;;;;;4922960;29;20547;-41
2021/07/26 00:25:50;;;;;;;6.30;3.43;;;19.60;84.30;;;;;;4930503;29;20795;-42
2021/07/26 00:28:17;;;;;;;5.03;3.67;;;19.50;84.40;;;;;;4926599;29;20567;-41
2021/07/26 00:30:43;;;;;;;4.63;3.33;;;19.50;84.50;;;;;;4925268;29;20539;-42
2021/07/26 00:34:08;;;;;;;4.93;3.53;;;19.50;84.50;;;;;;4915169;29;20468;-42
2021/07/26 00:36:40;;;;;;;6.73;4.13;;;19.50;84.60;;;;;;4899432;29;20540;-41
2021/07/26 00:39:08;;;;;;;5.60;3.40;;;19.50;84.50;;;;;;4927682;29;20575;-41
2021/07/26 00:41:36;;;;;;;5.50;3.73;;;19.40;84.50;;;;;;4926349;29;20468;-42
2021/07/26 00:44:04;;;;;;;4.20;3.50;;;19.40;84.50;;;;;;4926251;29;21104;-41
2021/07/26 00:46:31;;;;;;;7.20;3.53;;;19.40;84.60;;;;;;4929079;29;20980;-42
2021/07/26 00:49:00;;;;;;;9.30;4.23;;;19.40;84.70;;;;;;4911036;29;20895;-41
2021/07/26 00:51:28;;;;;;;5.37;3.40;;;19.40;84.70;;;;;;4924411;29;20514;-40
2021/07/26 00:53:55;;;;;;;10.17;2.83;;;19.40;84.70;;;;;;4926312;29;20527;-41
2021/07/26 00:56:22;;;;;;;5.33;3.50;;;19.40;84.80;;;;;;4912891;29;20535;-42
2021/07/26 00:58:50;;;;;;;7.23;3.27;;;19.40;84.80;;;;;;4927039;29;20859;-41
2021/07/26 01:01:18;;;;;;;8.23;3.70;;;19.30;84.70;;;;;;4923237;29;20505;-41
2021/07/26 01:03:45;;;;;;;7.53;4.00;;;19.30;84.60;;;;;;4923968;29;20493;-41
2021/07/26 01:06:12;;;;;;;7.47;3.43;;;19.30;84.60;;;;;;4926302;29;20499;-42
2021/07/26 01:08:40;;;;;;;4.27;3.83;;;19.30;84.60;;;;;;4924486;29;20520;-42
2021/07/26 01:11:07;;;;;;;7.30;3.47;;;19.20;84.60;;;;;;4926892;29;20468;-42
2021/07/26 01:13:35;;;;;;;7.20;4.00;;;19.30;84.50;;;;;;4924689;29;20496;-42
2021/07/26 01:16:03;;;;;;;7.37;4.00;;;19.30;84.40;;;;;;4909337;29;20871;-42
2021/07/26 01:18:31;;;;;;;8.37;4.00;;;19.30;84.30;;;;;;4927558;29;20499;-42
2021/07/26 01:21:10;;;;;;;4.33;3.53;;;19.30;84.30;;;;;;4925339;29;20555;-42
2021/07/26 01:23:42;;;;;;;7.57;4.40;;;19.20;84.40;;;;;;4926437;29;20489;-41
2021/07/26 01:26:15;;;;;;;7.47;3.57;;;19.20;84.40;;;;;;4924624;29;20564;-42
2021/07/26 01:28:44;;;;;;;8.93;4.27;;;19.20;84.50;;;;;;4925370;29;20523;-42
2021/07/26 01:31:12;;;;;;;8.03;3.97;;;19.10;84.50;;;;;;4925130;29;20460;-42
2021/07/26 01:33:41;;;;;;;10.43;4.00;;;19.10;84.60;;;;;;4924531;29;20550;-42
2021/07/26 01:36:09;;;;;;;5.37;4.17;;;19.10;84.60;;;;;;4922646;29;20950;-41
2021/07/26 01:38:36;;;;;;;5.23;4.40;;;19.00;84.60;;;;;;4922777;29;20491;-43
2021/07/26 01:41:11;;;;;;;6.10;3.97;;;19.00;84.70;;;;;;4925429;29;20464;-42
2021/07/26 01:44:02;;;;;;;8.03;4.90;;;19.00;84.90;;;;;;4927718;29;20980;-41
2021/07/26 01:47:04;;;;;;;5.10;3.80;;;19.00;84.90;;;;;;4926965;29;20460;-41
2021/07/26 01:49:38;;;;;;;6.80;4.23;;;19.00;85.00;;;;;;4923222;29;20548;-42
2021/07/26 01:52:05;;;;;;;7.87;4.43;;;18.90;85.00;;;;;;4921617;29;20532;-40
2021/07/26 01:54:32;;;;;;;8.03;3.97;;;18.90;85.10;;;;;;4922878;29;20528;-42
2021/07/26 01:57:00;;;;;;;7.03;3.70;;;18.90;85.30;;;;;;4924415;29;21007;-41
2021/07/26 01:59:27;;;;;;;8.73;4.50;;;18.90;85.40;;;;;;4924949;29;20586;-41
2021/07/26 02:01:54;;;;;;;4.83;4.30;;;18.90;85.50;;;;;;4920581;29;20559;-42
2021/07/26 02:04:21;;;;;;;5.50;4.13;;;18.90;85.60;;;;;;4930245;29;20464;-42
2021/07/26 02:06:49;;;;;;;8.20;4.80;;;18.80;85.70;;;;;;4926212;29;20483;-43
2021/07/26 02:09:15;;;;;;;5.37;4.20;;;18.80;85.70;;;;;;4926069;29;20543;-41
2021/07/26 02:11:42;;;;;;;6.90;4.83;;;18.90;85.80;;;;;;4923725;29;20464;-42
2021/07/26 02:14:09;;;;;;;5.77;4.33;;;18.80;85.80;;;;;;4926554;29;20494;-42
2021/07/26 02:16:37;;;;;;;5.93;4.37;;;18.80;85.70;;;;;;4926914;29;20520;-42
2021/07/26 02:19:06;;;;;;;7.83;4.50;;;18.80;85.70;;;;;;4922358;29;20493;-41
2021/07/26 02:21:33;;;;;;;5.23;3.70;;;18.80;85.60;;;;;;4924593;29;20931;-42
2021/07/26 02:24:00;;;;;;;8.30;4.33;;;18.80;85.60;;;;;;4923505;29;20480;-41
2021/07/26 02:26:27;;;;;;;10.33;4.30;;;18.80;85.60;;;;;;4925493;29;20448;-42
2021/07/26 02:28:54;;;;;;;13.80;4.70;;;18.80;85.60;;;;;;4922613;29;20556;-41
2021/07/26 02:31:21;;;;;;;11.47;4.17;;;18.80;85.40;;;;;;4913010;29;20552;-42
2021/07/26 02:33:48;;;;;;;7.93;4.27;;;18.80;85.20;;;;;;4924458;29;20547;-39
2021/07/26 02:36:15;;;;;;;7.63;4.10;;;18.80;85.10;;;;;;4927054;29;20463;-41
2021/07/26 02:38:42;;;;;;;8.47;3.40;;;18.70;85.10;;;;;;4925313;29;20587;-42
2021/07/26 02:41:14;;;;;;;7.30;4.43;;;18.70;85.10;;;;;;4921542;29;21016;-41
2021/07/26 02:43:42;;;;;;;9.83;3.90;;;18.70;85.00;;;;;;4923250;29;20817;-42
2021/07/26 02:46:10;;;;;;;8.83;4.27;;;18.60;85.00;;;;;;4899688;29;20465;-42
2021/07/26 02:48:38;;;;;;;9.10;4.67;;;18.60;85.10;;;;;;4921833;29;21078;-44
2021/07/26 02:51:06;;;;;;;5.33;3.80;;;18.60;85.10;;;;;;4923295;29;20990;-44
2021/07/26 02:53:33;;;;;;;5.90;4.17;;;18.60;85.10;;;;;;4923411;29;20551;-44
2021/07/26 02:56:00;;;;;;;8.13;4.50;;;18.60;85.30;;;;;;4910824;29;20530;-42
2021/07/26 02:58:27;;;;;;;6.30;4.33;;;18.60;85.40;;;;;;4924822;29;20531;-40
2021/07/26 03:00:53;;;;;;;5.90;4.23;;;18.60;85.50;;;;;;4924741;29;20557;-40
2021/07/26 03:03:20;;;;;;;5.60;3.77;;;18.60;85.50;;;;;;4925023;29;20468;-40
2021/07/26 03:05:47;;;;;;;8.13;4.30;;;18.50;85.50;;;;;;4926030;29;20941;-42
2021/07/26 03:08:14;;;;;;;12.20;4.50;;;18.50;85.60;;;;;;4923982;29;20460;-41
2021/07/26 03:10:41;;;;;;;6.67;4.03;;;18.50;85.50;;;;;;4923390;29;20459;-43
2021/07/26 03:13:07;;;;;;;5.00;3.70;;;18.50;85.50;;;;;;4923495;29;21332;-44
2021/07/26 03:15:36;;;;;;;12.93;4.67;;;18.50;85.60;;;;;;4922129;29;20471;-40
2021/07/26 03:18:05;;;;;;;7.27;4.43;;;18.50;85.60;;;;;;4924129;29;20519;-42
2021/07/26 03:20:32;;;;;;;9.00;5.73;;;18.40;85.70;;;;;;4922140;29;20698;-42
2021/07/26 03:23:03;;;;;;;6.80;4.67;;;18.40;85.70;;;;;;4922238;29;20465;-42
2021/07/26 03:25:32;;;;;;;5.73;4.30;;;18.40;85.80;;;;;;4923222;29;20514;-42
2021/07/26 03:28:00;;;;;;;8.50;5.20;;;18.40;85.80;;;;;;4926516;29;21052;-40
2021/07/26 03:30:27;;;;;;;5.23;3.40;;;18.40;85.90;;;;;;4923052;29;20527;-41
2021/07/26 03:32:54;;;;;;;5.53;4.33;;;18.40;85.90;;;;;;4922651;29;20531;-43
2021/07/26 03:35:22;;;;;;;9.30;3.97;;;18.40;85.90;;;;;;4925179;29;20502;-43
2021/07/26 03:37:50;;;;;;;4.90;4.40;;;18.40;85.90;;;;;;4923063;29;20556;-42
2021/07/26 03:40:18;;;;;;;7.17;4.40;;;18.40;85.90;;;;;;4923258;29;21000;-43
2021/07/26 03:42:45;;;;;;;5.07;4.00;;;18.40;85.90;;;;;;4907302;29;20533;-43
2021/07/26 03:45:14;;;;;;;9.30;4.23;;;18.40;85.90;;;;;;4923379;29;20455;-43
2021/07/26 03:47:42;;;;;;;7.87;4.70;;;18.30;85.90;;;;;;4923110;29;20460;-42
2021/07/26 03:50:10;;;;;;;6.40;4.07;;;18.30;85.90;;;;;;4920320;29;20583;-40
2021/07/26 03:52:51;;;;;;;6.30;3.90;;;18.30;85.90;;;;;;4924343;29;20468;-41
2021/07/26 03:55:22;;;;;;;5.63;4.10;;;18.30;85.90;;;;;;4905029;29;20559;-44
2021/07/26 03:57:51;;;;;;;9.13;4.60;;;18.30;85.90;;;;;;4925432;29;20495;-41
2021/07/26 04:00:20;;;;;;;5.83;3.80;;;18.30;86.00;;;;;;4910561;29;20547;-40
2021/07/26 04:03:29;;;;;;;9.13;4.00;;;18.30;85.90;;;;;;4919339;29;20545;-42
2021/07/26 04:05:57;;;;;;;10.40;4.30;;;18.30;85.90;;;;;;4921175;29;20939;-42
2021/07/26 04:08:33;;;;;;;8.07;5.03;;;18.20;86.00;;;;;;4923644;29;20471;-43
2021/07/26 04:11:08;;;;;;;5.63;4.47;;;18.20;86.00;;;;;;4921617;29;20475;-41
2021/07/26 04:13:37;;;;;;;5.27;3.87;;;18.20;86.00;;;;;;4921755;29;20526;-43
2021/07/26 04:16:05;;;;;;;7.20;4.63;;;18.20;86.00;;;;;;4922687;29;20470;-40
2021/07/26 04:18:31;;;;;;;8.43;4.60;;;18.20;86.00;;;;;;4924259;29;20586;-40
2021/07/26 04:21:05;;;;;;;8.10;4.90;;;18.20;86.00;;;;;;4921827;29;20998;-43
2021/07/26 04:23:32;;;;;;;6.70;4.30;;;18.20;86.00;;;;;;4921642;29;20555;-43
2021/07/26 04:25:59;;;;;;;11.00;4.33;;;18.20;86.00;;;;;;4926178;29;20877;-40
2021/07/26 04:28:25;;;;;;;6.77;4.90;;;18.20;86.10;;;;;;4924698;29;20484;-43
2021/07/26 04:30:52;;;;;;;10.60;5.60;;;18.20;86.10;;;;;;4912475;29;20456;-43
2021/07/26 04:33:19;;;;;;;7.63;4.27;;;18.20;86.20;;;;;;4911958;29;20546;-42
2021/07/26 04:35:46;;;;;;;5.40;4.27;;;18.20;86.20;;;;;;4908443;29;20559;-42
2021/07/26 04:38:12;;;;;;;7.93;3.90;;;18.20;86.30;;;;;;4896010;29;20542;-42
2021/07/26 04:40:39;;;;;;;8.60;4.33;;;18.20;86.30;;;;;;4923259;29;20503;-43
2021/07/26 04:43:06;;;;;;;5.10;3.80;;;18.20;86.30;;;;;;4921872;29;20541;-43
2021/07/26 04:45:33;;;;;;;5.33;3.70;;;18.30;86.30;;;;;;4924392;29;20457;-43
2021/07/26 04:47:59;;;;;;;6.30;3.97;;;18.30;86.30;;;;;;4909980;29;20465;-43
2021/07/26 04:50:26;;;;;;;6.00;4.17;;;18.30;86.30;;;;;;4923580;29;20799;-41
2021/07/26 04:52:53;;;;;;;4.70;4.20;;;18.30;86.30;;;;;;4924722;29;20949;-42
2021/07/26 04:55:20;;;;;;;6.07;4.37;;;18.30;86.40;;;;;;4925321;29;20564;-39
2021/07/26 04:57:46;;;;;;;6.50;4.30;;;18.30;86.40;;;;;;4924101;29;20547;-43
2021/07/26 05:00:13;;;;;;;7.33;4.73;;;18.40;86.50;;;;;;4925599;29;20909;-40
2021/07/26 05:02:40;;;;;;;11.87;4.70;;;18.40;86.50;;;;;;4924555;29;20539;-40
2021/07/26 05:05:07;;;;;;;4.60;3.80;;;18.50;86.40;;;;;;4926100;29;20548;-42
2021/07/26 05:07:34;;;;;;;6.47;4.30;;;18.50;86.30;;;;;;4917505;29;20462;-44
2021/07/26 05:10:02;;;;;;;4.77;4.00;;;18.50;86.30;;;;;;4922293;29;20476;-44
2021/07/26 05:12:29;;;;;;;4.90;3.60;;;18.60;86.20;;;;;;4927260;29;20506;-44
2021/07/26 05:14:56;;;;;;;9.37;5.20;;;18.60;86.20;;;;;;4916664;29;20464;-43
2021/07/26 05:17:23;;;;;;;8.77;5.30;;;18.70;86.30;;;;;;4926915;29;20507;-43
2021/07/26 05:19:50;;;;;;;6.37;5.13;;;18.70;86.30;;;;;;4925064;29;20600;-43
2021/07/26 05:22:17;;;;;;;7.13;5.00;;;18.70;86.40;;;;;;4924976;29;20957;-43
2021/07/26 05:24:44;;;;;;;8.63;4.97;;;18.80;86.50;;;;;;4908984;29;20535;-42
2021/07/26 05:27:11;;;;;;;7.80;5.23;;;18.80;86.50;;;;;;4925864;29;20587;-43
2021/07/26 05:29:38;;;;;;;5.97;4.80;;;18.90;86.50;;;;;;4928462;29;20497;-44
2021/07/26 05:32:06;;;;;;;5.63;5.07;;;18.90;86.40;;;;;;4925093;29;20551;-43
2021/07/26 05:34:36;;;;;;;8.23;5.50;;;18.90;86.50;;;;;;4913351;29;20475;-43
2021/07/26 05:37:03;;;;;;;6.23;4.47;;;19.00;86.50;;;;;;4912541;29;20534;-44
2021/07/26 05:39:30;;;;;;;8.70;5.10;;;19.00;86.60;;;;;;4924750;29;20572;-43
2021/07/26 05:41:59;;;;;;;8.20;5.40;;;19.10;86.60;;;;;;4925654;29;20487;-42
2021/07/26 05:44:25;;;;;;;7.10;5.17;;;19.20;86.60;;;;;;4905171;29;20560;-44
2021/07/26 05:46:52;;;;;;;6.40;5.13;;;19.20;86.50;;;;;;4925928;29;20835;-44
2021/07/26 05:49:19;;;;;;;7.93;4.73;;;19.30;86.50;;;;;;4928435;29;20988;-43
2021/07/26 05:51:46;;;;;;;7.20;5.37;;;19.30;86.40;;;;;;4927076;29;20464;-44
2021/07/26 05:54:13;;;;;;;6.70;5.00;;;19.40;86.30;;;;;;4926769;29;20464;-42
2021/07/26 05:56:44;;;;;;;7.00;4.90;;;19.40;86.20;;;;;;4923753;29;21054;-43
2021/07/26 05:59:11;;;;;;;7.60;5.23;;;19.50;85.90;;;;;;4925052;29;20483;-42
2021/07/26 06:01:47;;;;;;;6.47;4.50;;;19.50;85.90;;;;;;4923826;29;20555;-43
2021/07/26 06:04:19;;;;;;;5.13;4.63;;;19.60;85.50;;;;;;4925468;29;20459;-43
2021/07/26 06:06:48;;;;;;;7.53;4.90;;;19.70;85.30;;;;;;4915355;29;20548;-43
2021/07/26 06:09:16;;;;;;;5.63;5.03;;;19.80;85.30;;;;;;4928731;29;20897;-44
2021/07/26 06:11:43;;;;;;;9.03;4.10;;;19.90;84.90;;;;;;4928365;29;20494;-41
2021/07/26 06:14:11;;;;;;;6.07;3.97;;;20.00;84.60;;;;;;4906460;29;20542;-42
2021/07/26 06:16:43;;;;;;;7.33;4.13;;;20.00;84.10;;;;;;4926552;29;20517;-43
2021/07/26 06:19:11;;;;;;;3.87;3.50;;;20.10;84.20;;;;;;4912729;29;20590;-43
2021/07/26 06:21:52;;;;;;;5.17;3.70;;;20.20;83.40;;;;;;4912386;29;20491;-43
2021/07/26 06:24:23;;;;;;;3.83;3.27;;;20.20;83.50;;;;;;4922432;29;20468;-42
2021/07/26 06:26:57;;;;;;;6.23;3.87;;;20.20;83.50;;;;;;4924588;29;20547;-41
2021/07/26 06:29:25;;;;;;;4.60;3.50;;;20.30;83.50;;;;;;4923973;29;20970;-43
2021/07/26 06:31:52;;;;;;;4.43;3.60;;;20.40;83.30;;;;;;4912776;29;20468;-43
2021/07/26 06:34:19;;;;;;;4.53;3.50;;;20.40;83.20;;;;;;4914141;29;20475;-43
2021/07/26 06:36:46;;;;;;;4.93;3.60;;;20.50;83.10;;;;;;4913481;29;20457;-43
2021/07/26 06:39:13;;;;;;;4.70;3.83;;;20.60;83.00;;;;;;4922977;29;20522;-43
2021/07/26 06:41:40;;;;;;;6.63;4.00;;;20.70;82.80;;;;;;4921679;29;20465;-43
2021/07/26 06:44:07;;;;;;;4.77;3.67;;;20.90;81.90;;;;;;4924444;29;20460;-43
2021/07/26 06:46:34;;;;;;;5.43;3.60;;;21.00;81.10;;;;;;4926302;29;20484;-43
2021/07/26 06:49:01;;;;;;;6.60;4.03;;;21.00;81.10;;;;;;4924382;29;20890;-41
2021/07/26 06:51:28;;;;;;;5.80;4.03;;;21.10;81.00;;;;;;4924048;29;20459;-42
2021/07/26 06:53:54;;;;;;;5.10;3.33;;;21.20;81.10;;;;;;4921156;29;20454;-45
2021/07/26 06:56:21;;;;;;;4.87;3.57;;;21.40;79.40;;;;;;4928893;29;20457;-45
2021/07/26 06:58:48;;;;;;;3.83;3.43;;;21.50;78.90;;;;;;4926294;29;20501;-43
2021/07/26 07:01:16;;;;;;;3.90;3.47;;;21.50;79.10;;;;;;4908714;29;20555;-43
2021/07/26 07:03:47;;;;;;;4.07;3.43;;;21.60;78.40;;;;;;4909033;29;20463;-43
2021/07/26 07:06:15;;;;;;;5.60;4.70;;;21.60;78.20;;;;;;4923145;29;20543;-42
2021/07/26 07:08:43;;;;;;;4.07;3.63;;;21.70;78.30;;;;;;4924047;29;20464;-43
2021/07/26 07:11:15;;;;;;;5.10;3.50;;;21.90;77.70;;;;;;4909649;28;20464;-43
2021/07/26 07:13:44;;;;;;;4.70;3.20;;;22.00;76.80;;;;;;4922106;29;20491;-43
2021/07/26 07:16:17;;;;;;;4.03;3.13;;;22.10;76.60;;;;;;4912815;29;20468;-44
2021/07/26 07:18:45;;;;;;;4.20;3.80;;;22.20;75.80;;;;;;4925266;29;20502;-44
2021/07/26 07:21:17;;;;;;;4.10;3.00;;;22.40;75.30;;;;;;4912151;29;20529;-43
2021/07/26 07:23:44;;;;;;;6.43;3.70;;;22.60;74.90;;;;;;4893262;29;20550;-44
2021/07/26 07:26:11;;;;;;;4.00;3.60;;;22.70;74.10;;;;;;4905925;29;20463;-42
2021/07/26 07:28:39;;;;;;;7.90;3.30;;;22.80;73.60;;;;;;4923255;29;20977;-42
2021/07/26 07:31:06;;;;;;;3.67;3.37;;;23.00;73.20;;;;;;4917550;29;20463;-42
2021/07/26 07:33:33;;;;;;;4.00;3.50;;;23.10;72.60;;;;;;4905939;29;20903;-42
2021/07/26 07:36:04;;;;;;;7.23;3.93;;;23.10;72.20;;;;;;4922200;29;20519;-44
2021/07/26 07:38:32;;;;;;;3.97;3.13;;;23.20;72.60;;;;;;4923524;29;20482;-44
2021/07/26 07:41:00;;;;;;;6.67;4.00;;;23.40;70.50;;;;;;4925618;29;20538;-43
2021/07/26 07:43:29;;;;;;;4.70;3.73;;;23.40;70.90;;;;;;4921706;29;20459;-44
2021/07/26 07:45:56;;;;;;;4.70;4.20;;;23.60;70.30;;;;;;4922173;29;20878;-44
2021/07/26 07:48:25;;;;;;;4.30;3.60;;;23.70;70.50;;;;;;4912286;29;20532;-44
2021/07/26 07:50:53;;;;;;;4.50;3.73;;;23.80;70.60;;;;;;4924037;29;20525;-42
2021/07/26 07:53:20;;;;;;;3.77;3.37;;;23.90;69.80;;;;;;4924940;29;20466;-41
2021/07/26 07:55:47;;;;;;;5.03;3.67;;;24.00;69.40;;;;;;4922336;29;20500;-42
2021/07/26 07:58:14;;;;;;;5.77;4.10;;;24.10;69.40;;;;;;4924529;29;20477;-43
2021/07/26 08:00:41;;;;;;;3.50;3.17;;;24.20;69.40;;;;;;4925080;29;20574;-43
2021/07/26 08:03:08;;;;;;;5.20;3.70;;;24.30;69.10;;;;;;4923120;29;20463;-44
2021/07/26 08:05:35;;;;;;;4.70;3.50;;;24.40;68.60;;;;;;4923876;29;21017;-42
2021/07/26 08:08:02;;;;;;;4.90;3.50;;;24.50;68.30;;;;;;4925919;29;20549;-44
2021/07/26 08:10:29;;;;;;;3.57;3.07;;;24.60;67.20;;;;;;4924141;29;20878;-44
2021/07/26 08:12:56;;;;;;;6.67;3.90;;;24.80;66.70;;;;;;4921086;29;20506;-44
2021/07/26 08:15:22;;;;;;;3.43;2.97;;;24.80;66.20;;;;;;4912071;29;20471;-44
2021/07/26 08:17:49;;;;;;;4.07;3.13;;;24.90;65.90;;;;;;4912598;29;20448;-43
2021/07/26 08:20:17;;;;;;;6.37;3.50;;;25.00;66.00;;;;;;4921093;29;20903;-44
2021/07/26 08:22:46;;;;;;;4.30;3.10;;;25.00;66.50;;;;;;4924878;29;20489;-41
2021/07/26 08:25:14;;;;;;;6.10;3.93;;;25.20;67.00;;;;;;4924770;29;20487;-43
2021/07/26 08:27:50;;;;;;;3.83;3.43;;;25.30;65.90;;;;;;4926349;29;20477;-43
2021/07/26 08:30:28;;;;;;;6.33;3.10;;;25.40;65.70;;;;;;4929089;29;20659;-43
2021/07/26 08:33:00;;;;;;;4.03;3.63;;;25.40;65.30;;;;;;4925901;29;20948;-44
2021/07/26 08:35:29;;;;;;;3.70;2.73;;;25.50;65.50;;;;;;4911388;29;21127;-45
2021/07/26 08:37:56;;;;;;;3.43;2.90;;;25.60;65.40;;;;;;4918092;29;20898;-43
2021/07/26 08:40:26;;;;;;;3.00;2.70;;;25.70;64.10;;;;;;4927261;29;20493;-43
2021/07/26 08:42:54;;;;;;;6.10;2.80;;;25.70;63.50;;;;;;4927409;29;20451;-43
2021/07/26 08:45:21;;;;;;;5.03;3.27;;;25.80;62.60;;;;;;4926170;29;20484;-45
2021/07/26 08:47:48;;;;;;;3.20;2.90;;;25.90;62.70;;;;;;4924357;29;20490;-42
2021/07/26 08:50:17;;;;;;;3.23;2.77;;;26.10;61.40;;;;;;4925383;29;20511;-43
2021/07/26 08:52:49;;;;;;;3.83;2.90;;;26.20;61.10;;;;;;4899098;29;20482;-44
2021/07/26 08:55:18;;;;;;;3.67;3.30;;;26.30;60.90;;;;;;4915159;29;20499;-44
2021/07/26 08:57:47;;;;;;;3.30;3.00;;;26.50;61.30;;;;;;4927071;29;20522;-43
2021/07/26 09:00:19;;;;;;;3.23;2.93;;;26.60;60.20;;;;;;4924572;29;21070;-44
2021/07/26 09:02:51;;;;;;;3.47;3.17;;;26.60;60.40;;;;;;4926811;29;20516;-45
2021/07/26 09:05:19;;;;;;;3.10;2.80;;;26.60;59.70;;;;;;4925440;29;20554;-42
2021/07/26 09:07:50;;;;;;;2.90;2.67;;;26.60;60.20;;;;;;4927645;29;20951;-43
2021/07/26 09:10:25;;;;;;;3.97;3.57;;;26.70;60.50;;;;;;4905216;29;20455;-43
2021/07/26 09:12:56;;;;;;;4.13;3.07;;;26.80;60.40;;;;;;4916636;29;20474;-45
2021/07/26 09:15:34;;;;;;;3.23;2.93;;;27.00;59.60;;;;;;4916315;29;20522;-44
2021/07/26 09:18:02;;;;;;;3.70;3.30;;;27.30;59.00;;;;;;4929413;29;20447;-43
2021/07/26 09:20:31;;;;;;;3.73;3.40;;;27.50;58.10;;;;;;4914271;29;20585;-42
2021/07/26 09:23:20;;;;;;;3.53;3.23;;;27.80;57.90;;;;;;4911700;29;20464;-42
2021/07/26 09:25:51;;;;;;;5.20;3.53;;;27.90;57.70;;;;;;4927517;29;20502;-43
2021/07/26 09:28:22;;;;;;;3.87;3.47;;;28.10;57.20;;;;;;4912176;29;20704;-45
2021/07/26 09:30:51;;;;;;;5.60;3.90;;;28.20;56.50;;;;;;4924766;29;20287;-43
2021/07/26 09:33:32;;;;;;;5.30;3.43;;;28.50;56.30;;;;;;4926565;29;20287;-42
2021/07/26 09:36:32;;;;;;;3.53;2.83;;;28.80;55.80;;;;;;4912034;29;20208;-44
2021/07/26 09:39:02;;;;;;;4.30;3.50;;;28.80;54.60;;;;;;4921319;29;20216;-43
2021/07/26 09:41:48;;;;;;;5.30;3.50;;;28.60;53.70;;;;;;4924716;29;20239;-43
2021/07/26 09:44:29;;;;;;;3.90;2.83;;;28.70;53.80;;;;;;4923816;29;20207;-44
2021/07/26 09:47:19;;;;;;;3.07;2.80;;;28.80;54.00;;;;;;4924835;29;20348;-43
2021/07/26 09:49:46;;;;;;;2.90;2.60;;;28.60;54.10;;;;;;4926284;29;20342;-44
2021/07/26 09:52:16;;;;;;;6.60;3.30;;;28.40;54.10;;;;;;4926066;29;20287;-44
2021/07/26 09:54:45;;;;;;;4.30;3.03;;;28.20;54.70;;;;;;4926811;29;20306;-43
2021/07/26 09:57:26;;;;;;;5.83;3.60;;;28.00;54.50;;;;;;4924061;29;20212;-45
2021/07/26 09:59:54;;;;;;;2.70;2.50;;;27.70;55.20;;;;;;4926504;29;20295;-44
2021/07/26 10:02:24;;;;;;;2.53;2.30;;;27.50;56.00;;;;;;4923727;29;20593;-44
2021/07/26 10:04:52;;;;;;;9.63;2.97;;;27.90;54.90;;;;;;4907302;29;20820;-42
2021/07/26 10:07:20;;;;;;;3.20;2.90;;;28.60;53.50;;;;;;4928288;29;20203;-44
2021/07/26 10:09:47;;;;;;;4.97;2.90;;;29.20;51.90;;;;;;4923005;29;20283;-45
2021/07/26 10:12:16;;;;;;;5.47;3.05;;;29.70;51.00;;;;;;4924568;29;20212;-43
2021/07/26 10:14:46;;;;;;;4.93;2.90;;;29.90;50.30;;;;;;4924603;29;20235;-45
2021/07/26 10:17:16;;;;;;;3.65;2.67;;;29.90;50.50;;;;;;4922932;29;20291;-44
2021/07/26 10:19:44;;;;;;;3.15;2.35;;;29.70;50.00;;;;;;4924071;29;20261;-42
2021/07/26 10:22:14;;;;;;;5.30;3.80;;;29.40;51.10;;;;;;4923691;29;20288;-43
2021/07/26 10:24:50;;;;;;;3.57;3.00;;;29.00;52.10;;;;;;4928796;29;20200;-43
2021/07/26 10:27:24;;;;;;;3.30;3.00;;;28.50;53.70;;;;;;4925236;29;20773;-42
2021/07/26 10:29:54;;;;;;;4.07;3.20;;;28.20;54.90;;;;;;4910223;29;20578;-42
2021/07/26 10:32:30;;;;;;;3.40;3.10;;;27.80;56.10;;;;;;4920625;29;20232;-45
2021/07/26 10:34:58;;;;;;;3.37;3.03;;;27.70;57.60;;;;;;4921754;29;20662;-45
2021/07/26 10:37:51;;;;;;;4.27;3.53;;;27.60;57.60;;;;;;4897712;29;20298;-45
2021/07/26 10:40:29;;;;;;;3.80;3.33;;;27.40;57.40;;;;;;4897528;29;21191;-45
2021/07/26 10:43:03;;;;;;;7.00;3.50;;;27.30;58.10;;;;;;4923622;29;20465;-42
2021/07/26 10:45:33;;;;;;;3.30;3.00;;;27.40;57.30;;;;;;4923564;29;20669;-44
2021/07/26 10:48:22;;;;;;;3.97;2.90;;;27.30;57.20;;;;;;4925677;28;21850;-43
2021/07/26 10:50:52;;;;;;;5.70;3.80;;;27.20;58.20;;;;;;4908780;29;20463;-45
2021/07/26 10:53:34;;;;;;;2.90;2.60;;;27.00;58.50;;;;;;4913599;29;20554;-43
2021/07/26 10:56:13;;;;;;;5.60;3.83;;;26.90;58.80;;;;;;4911278;29;20212;-45
2021/07/26 10:58:42;;;;;;;2.70;2.47;;;26.70;59.60;;;;;;4923378;29;20543;-43
2021/07/26 11:01:22;;;;;;;4.90;2.87;;;26.60;59.00;;;;;;4911319;29;20530;-44
2021/07/26 11:03:53;;;;;;;3.50;3.00;;;26.50;58.30;;;;;;4920515;29;20460;-43
2021/07/26 11:09:33;;;;;;;5.80;3.50;;;26.50;57.30;;;;;;4923109;29;20519;-44
2021/07/26 11:12:05;;;;;;;3.60;2.70;;;26.50;57.90;;;;;;4918479;29;20459;-43
2021/07/26 11:14:32;;;;;;;3.77;3.23;;;26.50;57.90;;;;;;4926810;29;20499;-44
2021/07/26 11:17:04;;;;;;;3.37;2.63;;;26.60;57.50;;;;;;4924638;29;21008;-43
2021/07/26 11:19:40;;;;;;;4.47;2.57;;;26.70;58.10;;;;;;4922964;29;21054;-43
2021/07/26 11:22:27;;;;;;;3.43;2.53;;;26.90;56.60;;;;;;4922209;29;20502;-45
2021/07/26 11:24:55;;;;;;;2.77;2.07;;;27.00;55.00;;;;;;4923220;29;20452;-43
2021/07/26 11:27:22;;;;;;;2.90;2.60;;;27.00;55.60;;;;;;4909392;29;20527;-44
2021/07/26 11:29:54;;;;;;;4.10;2.80;;;27.00;55.60;;;;;;4922662;29;20946;-43
2021/07/26 11:32:22;;;;;;;9.80;3.10;;;27.00;54.90;;;;;;4905640;29;20539;-44
2021/07/26 11:34:54;;;;;;;2.53;2.00;;;26.90;54.70;;;;;;4926121;29;20464;-43
2021/07/26 11:37:39;;;;;;;2.47;2.27;;;26.90;55.70;;;;;;4925460;29;20508;-44
2021/07/26 11:40:12;;;;;;;3.20;1.83;;;26.80;54.60;;;;;;4919839;29;20910;-41
2021/07/26 11:42:45;;;;;;;2.90;2.20;;;26.80;54.20;;;;;;4920797;29;20464;-45
2021/07/26 11:45:16;;;;;;;2.77;2.23;;;26.80;53.70;;;;;;4926022;29;20549;-45
2021/07/26 11:47:59;;;;;;;2.70;1.83;;;26.90;53.00;;;;;;4927506;29;20487;-43
2021/07/26 11:50:40;;;;;;;5.97;2.23;;;26.90;53.80;;;;;;4924126;29;20954;-44
2021/07/26 11:53:07;;;;;;;2.90;1.83;;;26.90;53.70;;;;;;4925155;29;20873;-44
2021/07/26 11:55:34;;;;;;;3.90;1.80;;;26.90;52.70;;;;;;4924117;29;20208;-44
2021/07/26 11:58:07;;;;;;;2.40;2.17;;;26.90;53.00;;;;;;4924897;29;20558;-43
2021/07/26 12:00:38;;;;;;;3.13;1.77;;;27.00;52.70;;;;;;4909419;29;20526;-42
2021/07/26 12:03:06;;;;;;;3.90;1.77;;;27.10;53.00;;;;;;4921787;29;20555;-44
2021/07/26 12:05:35;;;;;;;3.47;2.10;;;27.20;53.80;;;;;;4922995;29;20455;-43
2021/07/26 12:08:12;;;;;;;3.60;2.10;;;27.30;52.90;;;;;;4924140;29;20542;-43
2021/07/26 12:10:39;;;;;;;2.70;2.00;;;27.30;52.00;;;;;;4921405;29;21024;-43
2021/07/26 12:13:18;;;;;;;2.37;2.17;;;27.40;52.10;;;;;;4923762;29;20490;-43
2021/07/26 12:15:46;;;;;;;2.70;2.30;;;27.40;52.10;;;;;;4906336;29;20542;-43
2021/07/26 12:18:33;;;;;;;3.73;1.47;;;27.40;52.10;;;;;;4918487;29;20298;-43
2021/07/26 12:21:01;;;;;;;3.73;2.40;;;27.50;52.60;;;;;;4921878;29;20511;-42
2021/07/26 12:23:33;;;;;;;2.70;2.20;;;27.60;52.40;;;;;;4921991;29;20650;-44
2021/07/26 12:26:10;;;;;;;2.40;2.07;;;27.60;52.40;;;;;;4921321;29;20495;-44
2021/07/26 12:28:50;;;;;;;2.00;1.80;;;27.70;53.10;;;;;;4908845;29;20604;-44
2021/07/26 12:31:28;;;;;;;2.87;1.93;;;27.90;51.30;;;;;;4910240;29;20239;-44
2021/07/26 12:34:13;;;;;;;2.67;2.33;;;28.00;49.80;;;;;;4923255;29;20429;-44
2021/07/26 12:36:42;;;;;;;2.27;1.93;;;28.20;49.50;;;;;;4919782;29;20530;-43
2021/07/26 12:39:09;;;;;;;2.03;1.83;;;28.10;49.50;;;;;;4922450;29;20709;-44
2021/07/26 12:41:37;;;;;;;3.37;1.93;;;28.10;49.30;;;;;;4909922;29;20291;-43
2021/07/26 12:44:16;;;;;;;4.80;1.90;;;28.00;48.70;;;;;;4922691;29;20212;-45
2021/07/26 12:46:47;;;;;;;2.40;2.20;;;27.90;50.20;;;;;;4909094;29;20459;-45
2021/07/26 12:49:16;;;;;;;2.30;2.10;;;27.80;52.70;;;;;;4922260;29;20207;-44
2021/07/26 12:51:44;;;;;;;3.53;2.33;;;27.80;52.60;;;;;;4905608;29;20270;-44
2021/07/26 12:54:11;;;;;;;2.33;2.10;;;27.80;52.80;;;;;;4922458;29;20987;-40
2021/07/26 12:56:38;;;;;;;2.87;2.67;;;27.90;53.50;;;;;;4924227;29;20468;-43
2021/07/26 12:59:04;;;;;;;2.87;2.07;;;27.90;53.30;;;;;;4909122;29;20474;-44
2021/07/26 13:01:31;;;;;;;3.57;2.30;;;28.00;51.70;;;;;;4905731;29;20224;-43
2021/07/26 13:03:58;;;;;;;2.90;2.40;;;28.00;51.60;;;;;;4920259;29;20548;-43